sensor_id;sensor_type;location;lat;lon;timestamp;P1;durP1;ratioP1;P2;durP2;ratioP2
63975;SDS011;50167;47.958;21.780;2023-07-30T00:00:27;10.65;;;5.53;;
63975;SDS011;50167;47.958;21.780;2023-07-30T00:02:54;9.83;;;5.35;;
63975;SDS011;50167;47.958;21.780;2023-07-30T00:05:20;7.25;;;4.80;;
63975;SDS011;50167;47.958;21.780;2023-07-30T00:07:47;5.80;;;5.00;;
63975;SDS011;50167;47.958;21.780;2023-07-30T00:10:13;7.00;;;4.83;;
63975;SDS011;50167;47.958;21.780;2023-07-30T00:12:40;11.53;;;5.03;;
63975;SDS011;50167;47.958;21.780;2023-07-30T00:15:07;9.90;;;4.80;;
63975;SDS011;50167;47.958;21.780;2023-07-30T00:17:33;6.75;;;5.35;;
63975;SDS011;50167;47.958;21.780;2023-07-30T00:19:59;8.03;;;5.03;;
63975;SDS011;50167;47.958;21.780;2023-07-30T00:22:25;8.13;;;4.92;;
63975;SDS011;50167;47.958;21.780;2023-07-30T00:24:52;9.10;;;6.10;;
63975;SDS011;50167;47.958;21.780;2023-07-30T00:27:18;8.83;;;5.17;;
63975;SDS011;50167;47.958;21.780;2023-07-30T00:29:44;7.17;;;5.35;;
63975;SDS011;50167;47.958;21.780;2023-07-30T00:32:10;9.70;;;5.10;;
63975;SDS011;50167;47.958;21.780;2023-07-30T00:34:36;5.60;;;5.10;;
63975;SDS011;50167;47.958;21.780;2023-07-30T00:37:03;6.90;;;4.40;;
63975;SDS011;50167;47.958;21.780;2023-07-30T00:39:29;10.43;;;4.42;;
63975;SDS011;50167;47.958;21.780;2023-07-30T00:41:56;9.35;;;4.25;;
63975;SDS011;50167;47.958;21.780;2023-07-30T00:44:22;30.00;;;6.12;;
63975;SDS011;50167;47.958;21.780;2023-07-30T00:46:48;6.22;;;4.78;;
63975;SDS011;50167;47.958;21.780;2023-07-30T00:49:15;11.53;;;5.75;;
63975;SDS011;50167;47.958;21.780;2023-07-30T00:51:42;12.07;;;5.47;;
63975;SDS011;50167;47.958;21.780;2023-07-30T00:54:09;8.35;;;6.42;;
63975;SDS011;50167;47.958;21.780;2023-07-30T00:56:36;15.50;;;5.35;;
63975;SDS011;50167;47.958;21.780;2023-07-30T00:59:03;8.13;;;5.35;;
63975;SDS011;50167;47.958;21.780;2023-07-30T01:01:30;8.93;;;4.60;;
63975;SDS011;50167;47.958;21.780;2023-07-30T01:03:59;8.90;;;5.70;;
63975;SDS011;50167;47.958;21.780;2023-07-30T01:06:26;7.30;;;5.45;;
63975;SDS011;50167;47.958;21.780;2023-07-30T01:08:52;7.28;;;5.62;;
63975;SDS011;50167;47.958;21.780;2023-07-30T01:11:18;7.28;;;5.22;;
63975;SDS011;50167;47.958;21.780;2023-07-30T01:13:45;6.53;;;4.75;;
63975;SDS011;50167;47.958;21.780;2023-07-30T01:16:12;6.28;;;5.08;;
63975;SDS011;50167;47.958;21.780;2023-07-30T01:18:39;10.32;;;5.75;;
63975;SDS011;50167;47.958;21.780;2023-07-30T01:21:05;5.87;;;5.22;;
63975;SDS011;50167;47.958;21.780;2023-07-30T01:23:31;12.23;;;4.78;;
63975;SDS011;50167;47.958;21.780;2023-07-30T01:26:02;11.38;;;5.12;;
63975;SDS011;50167;47.958;21.780;2023-07-30T01:28:33;5.40;;;4.87;;
63975;SDS011;50167;47.958;21.780;2023-07-30T01:31:03;9.65;;;4.92;;
63975;SDS011;50167;47.958;21.780;2023-07-30T01:33:32;7.53;;;5.50;;
63975;SDS011;50167;47.958;21.780;2023-07-30T01:35:58;7.95;;;6.08;;
63975;SDS011;50167;47.958;21.780;2023-07-30T01:38:26;10.10;;;6.28;;
63975;SDS011;50167;47.958;21.780;2023-07-30T01:40:52;10.23;;;5.97;;
63975;SDS011;50167;47.958;21.780;2023-07-30T01:43:19;8.65;;;5.10;;
63975;SDS011;50167;47.958;21.780;2023-07-30T01:45:45;12.13;;;5.37;;
63975;SDS011;50167;47.958;21.780;2023-07-30T01:48:11;11.50;;;5.25;;
63975;SDS011;50167;47.958;21.780;2023-07-30T01:50:37;8.95;;;5.30;;
63975;SDS011;50167;47.958;21.780;2023-07-30T01:53:03;8.78;;;6.53;;
63975;SDS011;50167;47.958;21.780;2023-07-30T01:55:29;7.17;;;5.58;;
63975;SDS011;50167;47.958;21.780;2023-07-30T01:57:55;8.00;;;5.40;;
63975;SDS011;50167;47.958;21.780;2023-07-30T02:00:22;8.63;;;5.90;;
63975;SDS011;50167;47.958;21.780;2023-07-30T02:02:48;9.75;;;5.70;;
63975;SDS011;50167;47.958;21.780;2023-07-30T02:05:14;7.55;;;5.40;;
63975;SDS011;50167;47.958;21.780;2023-07-30T02:07:40;7.15;;;4.95;;
63975;SDS011;50167;47.958;21.780;2023-07-30T02:10:06;7.25;;;5.50;;
63975;SDS011;50167;47.958;21.780;2023-07-30T02:12:33;8.83;;;5.33;;
63975;SDS011;50167;47.958;21.780;2023-07-30T02:14:59;7.60;;;6.53;;
63975;SDS011;50167;47.958;21.780;2023-07-30T02:17:25;7.85;;;5.70;;
63975;SDS011;50167;47.958;21.780;2023-07-30T02:19:51;9.80;;;5.77;;
63975;SDS011;50167;47.958;21.780;2023-07-30T02:22:17;10.68;;;6.20;;
63975;SDS011;50167;47.958;21.780;2023-07-30T02:24:44;12.63;;;5.47;;
63975;SDS011;50167;47.958;21.780;2023-07-30T02:27:10;8.93;;;5.78;;
63975;SDS011;50167;47.958;21.780;2023-07-30T02:29:36;7.50;;;5.47;;
63975;SDS011;50167;47.958;21.780;2023-07-30T02:32:02;8.15;;;5.95;;
63975;SDS011;50167;47.958;21.780;2023-07-30T02:34:29;8.68;;;5.95;;
63975;SDS011;50167;47.958;21.780;2023-07-30T02:36:55;6.80;;;6.08;;
63975;SDS011;50167;47.958;21.780;2023-07-30T02:39:21;10.98;;;5.83;;
63975;SDS011;50167;47.958;21.780;2023-07-30T02:41:48;7.33;;;6.03;;
63975;SDS011;50167;47.958;21.780;2023-07-30T02:44:14;7.00;;;5.72;;
63975;SDS011;50167;47.958;21.780;2023-07-30T02:46:40;8.40;;;6.10;;
63975;SDS011;50167;47.958;21.780;2023-07-30T02:49:07;8.65;;;6.30;;
63975;SDS011;50167;47.958;21.780;2023-07-30T02:51:34;10.25;;;6.40;;
63975;SDS011;50167;47.958;21.780;2023-07-30T02:54:03;7.70;;;6.05;;
63975;SDS011;50167;47.958;21.780;2023-07-30T02:56:32;9.05;;;5.87;;
63975;SDS011;50167;47.958;21.780;2023-07-30T02:58:58;11.00;;;6.00;;
63975;SDS011;50167;47.958;21.780;2023-07-30T03:01:25;7.08;;;6.15;;
63975;SDS011;50167;47.958;21.780;2023-07-30T03:03:51;11.28;;;6.85;;
63975;SDS011;50167;47.958;21.780;2023-07-30T03:06:18;11.45;;;7.25;;
63975;SDS011;50167;47.958;21.780;2023-07-30T03:08:44;9.65;;;6.30;;
63975;SDS011;50167;47.958;21.780;2023-07-30T03:11:10;10.58;;;7.65;;
63975;SDS011;50167;47.958;21.780;2023-07-30T03:13:38;10.03;;;6.78;;
63975;SDS011;50167;47.958;21.780;2023-07-30T03:16:04;10.93;;;5.90;;
63975;SDS011;50167;47.958;21.780;2023-07-30T03:18:31;10.95;;;6.40;;
63975;SDS011;50167;47.958;21.780;2023-07-30T03:20:58;8.03;;;6.20;;
63975;SDS011;50167;47.958;21.780;2023-07-30T03:23:26;8.45;;;6.00;;
63975;SDS011;50167;47.958;21.780;2023-07-30T03:25:52;13.45;;;6.37;;
63975;SDS011;50167;47.958;21.780;2023-07-30T03:28:19;10.20;;;6.50;;
63975;SDS011;50167;47.958;21.780;2023-07-30T03:30:45;6.50;;;5.75;;
63975;SDS011;50167;47.958;21.780;2023-07-30T03:33:11;8.68;;;5.22;;
63975;SDS011;50167;47.958;21.780;2023-07-30T03:35:37;12.35;;;7.28;;
63975;SDS011;50167;47.958;21.780;2023-07-30T03:38:03;10.45;;;5.65;;
63975;SDS011;50167;47.958;21.780;2023-07-30T03:40:30;7.75;;;6.55;;
63975;SDS011;50167;47.958;21.780;2023-07-30T03:42:56;9.23;;;7.10;;
63975;SDS011;50167;47.958;21.780;2023-07-30T03:45:22;8.03;;;6.70;;
63975;SDS011;50167;47.958;21.780;2023-07-30T03:47:49;14.20;;;8.20;;
63975;SDS011;50167;47.958;21.780;2023-07-30T03:50:15;7.78;;;6.80;;
63975;SDS011;50167;47.958;21.780;2023-07-30T03:52:41;7.90;;;5.90;;
63975;SDS011;50167;47.958;21.780;2023-07-30T03:55:07;8.45;;;6.70;;
63975;SDS011;50167;47.958;21.780;2023-07-30T03:57:33;8.25;;;6.15;;
63975;SDS011;50167;47.958;21.780;2023-07-30T04:00:00;11.08;;;7.20;;
63975;SDS011;50167;47.958;21.780;2023-07-30T04:02:26;13.22;;;7.30;;
63975;SDS011;50167;47.958;21.780;2023-07-30T04:04:52;10.20;;;7.33;;
63975;SDS011;50167;47.958;21.780;2023-07-30T04:07:18;11.30;;;6.78;;
63975;SDS011;50167;47.958;21.780;2023-07-30T04:13:08;8.35;;;6.60;;
63975;SDS011;50167;47.958;21.780;2023-07-30T04:15:35;11.78;;;7.03;;
63975;SDS011;50167;47.958;21.780;2023-07-30T04:18:01;11.75;;;7.78;;
63975;SDS011;50167;47.958;21.780;2023-07-30T04:20:27;7.92;;;7.12;;
63975;SDS011;50167;47.958;21.780;2023-07-30T04:22:53;11.15;;;7.28;;
63975;SDS011;50167;47.958;21.780;2023-07-30T04:25:20;8.55;;;7.15;;
63975;SDS011;50167;47.958;21.780;2023-07-30T04:27:46;9.58;;;8.58;;
63975;SDS011;50167;47.958;21.780;2023-07-30T04:30:12;13.40;;;7.30;;
63975;SDS011;50167;47.958;21.780;2023-07-30T04:32:38;9.13;;;7.62;;
63975;SDS011;50167;47.958;21.780;2023-07-30T04:35:04;8.53;;;7.60;;
63975;SDS011;50167;47.958;21.780;2023-07-30T04:37:31;11.50;;;7.33;;
63975;SDS011;50167;47.958;21.780;2023-07-30T04:39:57;10.10;;;7.15;;
63975;SDS011;50167;47.958;21.780;2023-07-30T04:42:23;9.93;;;7.33;;
63975;SDS011;50167;47.958;21.780;2023-07-30T04:44:49;13.53;;;8.05;;
63975;SDS011;50167;47.958;21.780;2023-07-30T04:47:15;8.40;;;7.50;;
63975;SDS011;50167;47.958;21.780;2023-07-30T04:49:42;9.45;;;7.62;;
63975;SDS011;50167;47.958;21.780;2023-07-30T04:52:08;13.75;;;7.37;;
63975;SDS011;50167;47.958;21.780;2023-07-30T04:54:34;11.10;;;6.72;;
63975;SDS011;50167;47.958;21.780;2023-07-30T04:57:03;8.98;;;6.72;;
63975;SDS011;50167;47.958;21.780;2023-07-30T04:59:31;11.43;;;7.60;;
63975;SDS011;50167;47.958;21.780;2023-07-30T05:01:59;11.45;;;7.40;;
63975;SDS011;50167;47.958;21.780;2023-07-30T05:04:26;11.80;;;6.67;;
63975;SDS011;50167;47.958;21.780;2023-07-30T05:06:52;8.43;;;6.87;;
63975;SDS011;50167;47.958;21.780;2023-07-30T05:09:18;11.68;;;6.35;;
63975;SDS011;50167;47.958;21.780;2023-07-30T05:11:45;13.48;;;6.05;;
63975;SDS011;50167;47.958;21.780;2023-07-30T05:14:11;9.33;;;6.70;;
63975;SDS011;50167;47.958;21.780;2023-07-30T05:16:37;7.58;;;6.50;;
63975;SDS011;50167;47.958;21.780;2023-07-30T05:19:03;15.32;;;7.05;;
63975;SDS011;50167;47.958;21.780;2023-07-30T05:21:30;7.55;;;6.75;;
63975;SDS011;50167;47.958;21.780;2023-07-30T05:23:56;14.93;;;7.87;;
63975;SDS011;50167;47.958;21.780;2023-07-30T05:26:24;9.88;;;7.03;;
63975;SDS011;50167;47.958;21.780;2023-07-30T05:28:50;12.28;;;7.10;;
63975;SDS011;50167;47.958;21.780;2023-07-30T05:31:16;12.50;;;7.20;;
63975;SDS011;50167;47.958;21.780;2023-07-30T05:33:42;10.90;;;7.20;;
63975;SDS011;50167;47.958;21.780;2023-07-30T05:36:09;12.37;;;7.25;;
63975;SDS011;50167;47.958;21.780;2023-07-30T05:38:35;12.60;;;8.18;;
63975;SDS011;50167;47.958;21.780;2023-07-30T05:41:01;6.65;;;5.97;;
63975;SDS011;50167;47.958;21.780;2023-07-30T05:43:27;10.72;;;7.58;;
63975;SDS011;50167;47.958;21.780;2023-07-30T05:45:53;11.30;;;6.33;;
63975;SDS011;50167;47.958;21.780;2023-07-30T05:48:19;9.80;;;7.83;;
63975;SDS011;50167;47.958;21.780;2023-07-30T05:50:46;10.18;;;6.67;;
63975;SDS011;50167;47.958;21.780;2023-07-30T05:53:12;9.78;;;7.80;;
63975;SDS011;50167;47.958;21.780;2023-07-30T05:55:38;9.35;;;6.40;;
63975;SDS011;50167;47.958;21.780;2023-07-30T05:58:04;12.47;;;6.08;;
63975;SDS011;50167;47.958;21.780;2023-07-30T06:00:30;9.13;;;6.37;;
63975;SDS011;50167;47.958;21.780;2023-07-30T06:02:57;11.75;;;6.28;;
63975;SDS011;50167;47.958;21.780;2023-07-30T06:05:23;11.18;;;6.17;;
63975;SDS011;50167;47.958;21.780;2023-07-30T06:07:49;10.98;;;6.50;;
63975;SDS011;50167;47.958;21.780;2023-07-30T06:10:16;11.38;;;6.67;;
63975;SDS011;50167;47.958;21.780;2023-07-30T06:12:42;7.75;;;6.95;;
63975;SDS011;50167;47.958;21.780;2023-07-30T06:15:09;9.95;;;6.97;;
63975;SDS011;50167;47.958;21.780;2023-07-30T06:17:35;9.33;;;6.55;;
63975;SDS011;50167;47.958;21.780;2023-07-30T06:20:01;9.10;;;6.62;;
63975;SDS011;50167;47.958;21.780;2023-07-30T06:22:28;10.65;;;6.25;;
63975;SDS011;50167;47.958;21.780;2023-07-30T06:24:54;6.33;;;5.72;;
63975;SDS011;50167;47.958;21.780;2023-07-30T06:27:20;10.65;;;6.50;;
63975;SDS011;50167;47.958;21.780;2023-07-30T06:29:46;6.12;;;5.58;;
63975;SDS011;50167;47.958;21.780;2023-07-30T06:32:13;8.80;;;6.47;;
63975;SDS011;50167;47.958;21.780;2023-07-30T06:34:40;13.75;;;6.37;;
63975;SDS011;50167;47.958;21.780;2023-07-30T06:37:06;7.90;;;6.12;;
63975;SDS011;50167;47.958;21.780;2023-07-30T06:39:32;7.28;;;6.28;;
63975;SDS011;50167;47.958;21.780;2023-07-30T06:41:58;6.78;;;5.97;;
63975;SDS011;50167;47.958;21.780;2023-07-30T06:44:24;8.10;;;5.92;;
63975;SDS011;50167;47.958;21.780;2023-07-30T06:46:50;9.03;;;5.80;;
63975;SDS011;50167;47.958;21.780;2023-07-30T06:49:17;9.33;;;6.58;;
63975;SDS011;50167;47.958;21.780;2023-07-30T06:51:43;10.63;;;6.60;;
63975;SDS011;50167;47.958;21.780;2023-07-30T06:54:09;6.30;;;5.15;;
63975;SDS011;50167;47.958;21.780;2023-07-30T06:56:35;6.22;;;5.60;;
63975;SDS011;50167;47.958;21.780;2023-07-30T06:59:01;9.78;;;5.35;;
63975;SDS011;50167;47.958;21.780;2023-07-30T07:01:28;6.83;;;5.70;;
63975;SDS011;50167;47.958;21.780;2023-07-30T07:03:55;6.30;;;4.78;;
63975;SDS011;50167;47.958;21.780;2023-07-30T07:06:21;7.10;;;5.70;;
63975;SDS011;50167;47.958;21.780;2023-07-30T07:08:47;9.03;;;5.28;;
63975;SDS011;50167;47.958;21.780;2023-07-30T07:11:13;9.83;;;4.80;;
63975;SDS011;50167;47.958;21.780;2023-07-30T07:13:39;4.25;;;3.83;;
63975;SDS011;50167;47.958;21.780;2023-07-30T07:16:06;5.17;;;3.60;;
63975;SDS011;50167;47.958;21.780;2023-07-30T07:18:32;5.12;;;3.50;;
63975;SDS011;50167;47.958;21.780;2023-07-30T07:20:58;6.78;;;3.83;;
63975;SDS011;50167;47.958;21.780;2023-07-30T07:23:24;7.60;;;4.42;;
63975;SDS011;50167;47.958;21.780;2023-07-30T07:25:51;6.35;;;3.95;;
63975;SDS011;50167;47.958;21.780;2023-07-30T07:28:18;4.95;;;4.03;;
63975;SDS011;50167;47.958;21.780;2023-07-30T07:30:44;8.40;;;3.70;;
63975;SDS011;50167;47.958;21.780;2023-07-30T07:33:10;6.05;;;4.33;;
63975;SDS011;50167;47.958;21.780;2023-07-30T07:35:39;6.37;;;4.00;;
63975;SDS011;50167;47.958;21.780;2023-07-30T07:38:06;8.78;;;4.35;;
63975;SDS011;50167;47.958;21.780;2023-07-30T07:40:38;6.78;;;4.17;;
63975;SDS011;50167;47.958;21.780;2023-07-30T07:43:05;10.30;;;4.87;;
63975;SDS011;50167;47.958;21.780;2023-07-30T07:45:34;4.40;;;3.60;;
63975;SDS011;50167;47.958;21.780;2023-07-30T07:48:00;6.87;;;3.67;;
63975;SDS011;50167;47.958;21.780;2023-07-30T07:50:26;3.65;;;3.35;;
63975;SDS011;50167;47.958;21.780;2023-07-30T07:52:53;11.00;;;3.30;;
63975;SDS011;50167;47.958;21.780;2023-07-30T07:55:22;4.05;;;3.02;;
63975;SDS011;50167;47.958;21.780;2023-07-30T07:57:48;5.67;;;3.40;;
63975;SDS011;50167;47.958;21.780;2023-07-30T08:00:14;3.67;;;3.17;;
63975;SDS011;50167;47.958;21.780;2023-07-30T08:02:41;5.08;;;3.85;;
63975;SDS011;50167;47.958;21.780;2023-07-30T08:05:13;4.58;;;3.25;;
63975;SDS011;50167;47.958;21.780;2023-07-30T08:07:39;8.50;;;3.75;;
63975;SDS011;50167;47.958;21.780;2023-07-30T08:10:06;7.47;;;3.62;;
63975;SDS011;50167;47.958;21.780;2023-07-30T08:12:32;5.22;;;3.52;;
63975;SDS011;50167;47.958;21.780;2023-07-30T08:14:59;4.70;;;3.92;;
63975;SDS011;50167;47.958;21.780;2023-07-30T08:17:25;11.55;;;3.40;;
63975;SDS011;50167;47.958;21.780;2023-07-30T08:19:51;4.12;;;3.40;;
63975;SDS011;50167;47.958;21.780;2023-07-30T08:22:20;7.87;;;3.77;;
63975;SDS011;50167;47.958;21.780;2023-07-30T08:24:47;5.53;;;3.42;;
63975;SDS011;50167;47.958;21.780;2023-07-30T08:27:13;4.95;;;3.15;;
63975;SDS011;50167;47.958;21.780;2023-07-30T08:29:39;11.33;;;3.35;;
63975;SDS011;50167;47.958;21.780;2023-07-30T08:32:06;4.58;;;3.12;;
63975;SDS011;50167;47.958;21.780;2023-07-30T08:34:32;5.70;;;3.30;;
63975;SDS011;50167;47.958;21.780;2023-07-30T08:36:58;3.87;;;3.25;;
63975;SDS011;50167;47.958;21.780;2023-07-30T08:39:25;8.73;;;3.65;;
63975;SDS011;50167;47.958;21.780;2023-07-30T08:41:51;6.55;;;3.22;;
63975;SDS011;50167;47.958;21.780;2023-07-30T08:44:17;4.03;;;3.62;;
63975;SDS011;50167;47.958;21.780;2023-07-30T08:46:43;6.72;;;3.70;;
63975;SDS011;50167;47.958;21.780;2023-07-30T08:49:10;5.78;;;3.98;;
63975;SDS011;50167;47.958;21.780;2023-07-30T08:51:36;7.83;;;3.62;;
63975;SDS011;50167;47.958;21.780;2023-07-30T08:54:03;4.20;;;3.37;;
63975;SDS011;50167;47.958;21.780;2023-07-30T08:56:30;10.43;;;4.12;;
63975;SDS011;50167;47.958;21.780;2023-07-30T08:58:57;8.05;;;3.52;;
63975;SDS011;50167;47.958;21.780;2023-07-30T09:05:25;9.40;;;4.10;;
63975;SDS011;50167;47.958;21.780;2023-07-30T09:07:55;8.85;;;4.10;;
63975;SDS011;50167;47.958;21.780;2023-07-30T09:10:22;4.80;;;3.85;;
63975;SDS011;50167;47.958;21.780;2023-07-30T09:12:52;3.77;;;3.05;;
63975;SDS011;50167;47.958;21.780;2023-07-30T09:15:20;5.65;;;3.72;;
63975;SDS011;50167;47.958;21.780;2023-07-30T09:18:02;6.67;;;3.70;;
63975;SDS011;50167;47.958;21.780;2023-07-30T09:20:39;4.97;;;3.50;;
63975;SDS011;50167;47.958;21.780;2023-07-30T09:23:07;5.50;;;3.80;;
63975;SDS011;50167;47.958;21.780;2023-07-30T09:25:35;3.72;;;3.37;;
63975;SDS011;50167;47.958;21.780;2023-07-30T09:28:11;4.00;;;3.17;;
63975;SDS011;50167;47.958;21.780;2023-07-30T09:30:37;5.72;;;3.62;;
63975;SDS011;50167;47.958;21.780;2023-07-30T09:33:04;4.22;;;3.55;;
63975;SDS011;50167;47.958;21.780;2023-07-30T09:35:32;3.67;;;3.05;;
63975;SDS011;50167;47.958;21.780;2023-07-30T09:38:03;5.75;;;3.12;;
63975;SDS011;50167;47.958;21.780;2023-07-30T09:43:02;7.15;;;3.92;;
63975;SDS011;50167;47.958;21.780;2023-07-30T09:45:31;7.67;;;3.35;;
63975;SDS011;50167;47.958;21.780;2023-07-30T09:48:02;10.90;;;3.35;;
63975;SDS011;50167;47.958;21.780;2023-07-30T09:50:33;4.83;;;3.17;;
63975;SDS011;50167;47.958;21.780;2023-07-30T09:53:03;8.35;;;2.80;;
63975;SDS011;50167;47.958;21.780;2023-07-30T09:57:56;8.15;;;3.45;;
63975;SDS011;50167;47.958;21.780;2023-07-30T10:00:22;3.83;;;3.00;;
63975;SDS011;50167;47.958;21.780;2023-07-30T10:02:49;3.75;;;3.27;;
63975;SDS011;50167;47.958;21.780;2023-07-30T10:05:20;5.42;;;3.12;;
63975;SDS011;50167;47.958;21.780;2023-07-30T10:07:53;5.30;;;3.40;;
63975;SDS011;50167;47.958;21.780;2023-07-30T10:10:24;5.78;;;3.00;;
63975;SDS011;50167;47.958;21.780;2023-07-30T10:12:51;6.22;;;3.20;;
63975;SDS011;50167;47.958;21.780;2023-07-30T10:15:20;5.28;;;3.40;;
63975;SDS011;50167;47.958;21.780;2023-07-30T10:17:50;8.00;;;3.42;;
63975;SDS011;50167;47.958;21.780;2023-07-30T10:20:21;4.20;;;3.02;;
63975;SDS011;50167;47.958;21.780;2023-07-30T10:22:53;4.15;;;3.12;;
63975;SDS011;50167;47.958;21.780;2023-07-30T10:25:22;6.03;;;3.62;;
63975;SDS011;50167;47.958;21.780;2023-07-30T10:27:58;7.62;;;3.45;;
63975;SDS011;50167;47.958;21.780;2023-07-30T10:30:35;5.85;;;2.90;;
63975;SDS011;50167;47.958;21.780;2023-07-30T10:33:04;3.15;;;2.70;;
63975;SDS011;50167;47.958;21.780;2023-07-30T10:35:45;4.42;;;2.80;;
63975;SDS011;50167;47.958;21.780;2023-07-30T10:38:16;3.42;;;3.10;;
63975;SDS011;50167;47.958;21.780;2023-07-30T10:43:42;7.72;;;3.15;;
63975;SDS011;50167;47.958;21.780;2023-07-30T10:46:12;3.10;;;2.72;;
63975;SDS011;50167;47.958;21.780;2023-07-30T10:48:41;4.60;;;3.08;;
63975;SDS011;50167;47.958;21.780;2023-07-30T10:51:10;6.80;;;3.57;;
63975;SDS011;50167;47.958;21.780;2023-07-30T10:53:42;9.53;;;3.27;;
63975;SDS011;50167;47.958;21.780;2023-07-30T10:56:12;6.92;;;3.20;;
63975;SDS011;50167;47.958;21.780;2023-07-30T10:58:40;4.03;;;3.62;;
63975;SDS011;50167;47.958;21.780;2023-07-30T11:01:09;7.15;;;3.33;;
63975;SDS011;50167;47.958;21.780;2023-07-30T11:03:36;5.60;;;3.25;;
63975;SDS011;50167;47.958;21.780;2023-07-30T11:06:13;4.03;;;3.37;;
63975;SDS011;50167;47.958;21.780;2023-07-30T11:08:40;5.55;;;3.50;;
63975;SDS011;50167;47.958;21.780;2023-07-30T11:11:09;5.35;;;3.33;;
63975;SDS011;50167;47.958;21.780;2023-07-30T11:13:37;3.62;;;2.60;;
63975;SDS011;50167;47.958;21.780;2023-07-30T11:16:11;6.00;;;3.02;;
63975;SDS011;50167;47.958;21.780;2023-07-30T11:18:37;6.45;;;3.08;;
63975;SDS011;50167;47.958;21.780;2023-07-30T11:21:07;7.28;;;3.72;;
63975;SDS011;50167;47.958;21.780;2023-07-30T11:23:36;4.92;;;2.47;;
63975;SDS011;50167;47.958;21.780;2023-07-30T11:26:05;5.15;;;2.92;;
63975;SDS011;50167;47.958;21.780;2023-07-30T11:28:37;3.20;;;2.77;;
63975;SDS011;50167;47.958;21.780;2023-07-30T11:31:15;3.60;;;2.90;;
63975;SDS011;50167;47.958;21.780;2023-07-30T11:33:45;4.15;;;2.50;;
63975;SDS011;50167;47.958;21.780;2023-07-30T11:36:18;4.47;;;2.52;;
63975;SDS011;50167;47.958;21.780;2023-07-30T11:38:47;5.92;;;2.58;;
63975;SDS011;50167;47.958;21.780;2023-07-30T11:41:14;7.22;;;2.12;;
63975;SDS011;50167;47.958;21.780;2023-07-30T11:43:43;4.30;;;2.92;;
63975;SDS011;50167;47.958;21.780;2023-07-30T11:48:46;10.25;;;2.75;;
63975;SDS011;50167;47.958;21.780;2023-07-30T11:51:18;8.25;;;3.00;;
63975;SDS011;50167;47.958;21.780;2023-07-30T11:53:53;6.87;;;3.20;;
63975;SDS011;50167;47.958;21.780;2023-07-30T11:56:24;5.08;;;2.77;;
63975;SDS011;50167;47.958;21.780;2023-07-30T11:59:00;3.08;;;2.50;;
63975;SDS011;50167;47.958;21.780;2023-07-30T12:01:31;3.17;;;2.40;;
63975;SDS011;50167;47.958;21.780;2023-07-30T12:06:46;4.10;;;2.65;;
63975;SDS011;50167;47.958;21.780;2023-07-30T12:11:54;6.85;;;2.45;;
63975;SDS011;50167;47.958;21.780;2023-07-30T12:14:24;2.95;;;2.60;;
63975;SDS011;50167;47.958;21.780;2023-07-30T12:16:54;3.87;;;2.58;;
63975;SDS011;50167;47.958;21.780;2023-07-30T12:19:22;2.98;;;2.67;;
63975;SDS011;50167;47.958;21.780;2023-07-30T12:21:55;11.53;;;2.85;;
63975;SDS011;50167;47.958;21.780;2023-07-30T12:24:21;3.62;;;2.60;;
63975;SDS011;50167;47.958;21.780;2023-07-30T12:26:47;4.47;;;2.85;;
63975;SDS011;50167;47.958;21.780;2023-07-30T12:29:13;3.10;;;2.80;;
63975;SDS011;50167;47.958;21.780;2023-07-30T12:31:40;4.35;;;2.87;;
63975;SDS011;50167;47.958;21.780;2023-07-30T12:34:06;4.40;;;2.67;;
63975;SDS011;50167;47.958;21.780;2023-07-30T12:36:32;3.55;;;3.25;;
63975;SDS011;50167;47.958;21.780;2023-07-30T12:38:58;2.92;;;2.62;;
63975;SDS011;50167;47.958;21.780;2023-07-30T12:41:25;4.97;;;3.02;;
63975;SDS011;50167;47.958;21.780;2023-07-30T12:43:54;6.67;;;2.45;;
63975;SDS011;50167;47.958;21.780;2023-07-30T12:46:24;10.65;;;3.00;;
63975;SDS011;50167;47.958;21.780;2023-07-30T12:48:58;8.15;;;3.05;;
63975;SDS011;50167;47.958;21.780;2023-07-30T12:51:32;7.03;;;3.15;;
63975;SDS011;50167;47.958;21.780;2023-07-30T12:53:59;3.35;;;2.67;;
63975;SDS011;50167;47.958;21.780;2023-07-30T13:02:51;4.80;;;2.65;;
63975;SDS011;50167;47.958;21.780;2023-07-30T13:05:19;4.10;;;2.83;;
63975;SDS011;50167;47.958;21.780;2023-07-30T13:07:46;6.25;;;2.70;;
63975;SDS011;50167;47.958;21.780;2023-07-30T13:10:12;4.42;;;2.87;;
63975;SDS011;50167;47.958;21.780;2023-07-30T13:12:39;7.10;;;2.92;;
63975;SDS011;50167;47.958;21.780;2023-07-30T13:15:05;7.60;;;4.25;;
63975;SDS011;50167;47.958;21.780;2023-07-30T13:17:32;8.53;;;3.42;;
63975;SDS011;50167;47.958;21.780;2023-07-30T13:19:59;5.40;;;3.40;;
63975;SDS011;50167;47.958;21.780;2023-07-30T13:22:25;3.75;;;2.98;;
63975;SDS011;50167;47.958;21.780;2023-07-30T13:24:52;7.40;;;3.90;;
63975;SDS011;50167;47.958;21.780;2023-07-30T13:27:18;4.12;;;2.62;;
63975;SDS011;50167;47.958;21.780;2023-07-30T13:29:44;2.08;;;1.87;;
63975;SDS011;50167;47.958;21.780;2023-07-30T13:32:10;3.33;;;2.40;;
63975;SDS011;50167;47.958;21.780;2023-07-30T13:34:41;3.27;;;2.20;;
63975;SDS011;50167;47.958;21.780;2023-07-30T13:37:08;2.65;;;1.80;;
63975;SDS011;50167;47.958;21.780;2023-07-30T13:39:35;3.98;;;2.10;;
63975;SDS011;50167;47.958;21.780;2023-07-30T13:42:01;6.15;;;2.00;;
63975;SDS011;50167;47.958;21.780;2023-07-30T13:44:27;2.55;;;1.77;;
63975;SDS011;50167;47.958;21.780;2023-07-30T13:46:53;2.95;;;1.95;;
63975;SDS011;50167;47.958;21.780;2023-07-30T13:49:20;4.37;;;2.05;;
63975;SDS011;50167;47.958;21.780;2023-07-30T13:51:46;3.62;;;2.77;;
63975;SDS011;50167;47.958;21.780;2023-07-30T13:54:12;5.60;;;2.30;;
63975;SDS011;50167;47.958;21.780;2023-07-30T13:56:38;3.17;;;2.00;;
63975;SDS011;50167;47.958;21.780;2023-07-30T13:59:05;8.05;;;2.00;;
63975;SDS011;50167;47.958;21.780;2023-07-30T14:01:31;4.60;;;2.50;;
63975;SDS011;50167;47.958;21.780;2023-07-30T14:03:57;2.87;;;2.47;;
63975;SDS011;50167;47.958;21.780;2023-07-30T14:06:23;4.12;;;2.77;;
63975;SDS011;50167;47.958;21.780;2023-07-30T14:08:50;3.15;;;1.20;;
63975;SDS011;50167;47.958;21.780;2023-07-30T14:11:16;2.75;;;1.75;;
63975;SDS011;50167;47.958;21.780;2023-07-30T14:13:42;6.22;;;1.60;;
63975;SDS011;50167;47.958;21.780;2023-07-30T14:16:08;1.80;;;1.57;;
63975;SDS011;50167;47.958;21.780;2023-07-30T14:18:35;1.72;;;1.62;;
63975;SDS011;50167;47.958;21.780;2023-07-30T14:21:03;1.62;;;1.30;;
63975;SDS011;50167;47.958;21.780;2023-07-30T14:23:29;5.03;;;1.60;;
63975;SDS011;50167;47.958;21.780;2023-07-30T14:25:55;1.92;;;1.50;;
63975;SDS011;50167;47.958;21.780;2023-07-30T14:28:22;2.42;;;1.82;;
63975;SDS011;50167;47.958;21.780;2023-07-30T14:30:48;1.55;;;1.45;;
63975;SDS011;50167;47.958;21.780;2023-07-30T14:33:14;2.40;;;2.08;;
63975;SDS011;50167;47.958;21.780;2023-07-30T14:35:40;1.70;;;1.60;;
63975;SDS011;50167;47.958;21.780;2023-07-30T14:38:06;3.87;;;1.75;;
63975;SDS011;50167;47.958;21.780;2023-07-30T14:40:33;7.05;;;1.90;;
63975;SDS011;50167;47.958;21.780;2023-07-30T14:42:59;4.65;;;2.35;;
63975;SDS011;50167;47.958;21.780;2023-07-30T14:45:25;2.62;;;1.82;;
63975;SDS011;50167;47.958;21.780;2023-07-30T14:47:53;3.00;;;1.47;;
63975;SDS011;50167;47.958;21.780;2023-07-30T14:50:20;8.00;;;1.67;;
63975;SDS011;50167;47.958;21.780;2023-07-30T14:52:50;6.97;;;1.80;;
63975;SDS011;50167;47.958;21.780;2023-07-30T14:55:16;2.87;;;1.85;;
63975;SDS011;50167;47.958;21.780;2023-07-30T14:57:42;2.70;;;2.02;;
63975;SDS011;50167;47.958;21.780;2023-07-30T15:00:09;3.95;;;1.98;;